Terminal Aerodrome Forecast
Issued by NWS Duluth, MN

Home | Current Version | Previous Version | Text Only | Print | Product List | Glossary On
Versions: 1 2 3 4 5 6 7 8 9 10 11 12 13 14 15 16 17 18 19 20 21 22 23 24 25 26 27 28 29 30 31 32 33 34 35 36 37 38
000
FTUS43 KDLH 221740
TAFDLH
TAF
KDLH 221740Z 2218/2318 06004KT P6SM VCSH BKN050
     FM222300 04006KT 3SM -SHRA SCT003 OVC007
      TEMPO 2223/2302 1/2SM SNRA OVC003
     FM230200 01006KT 1 1/2SM -SN OVC003
     FM230600 36007KT P6SM OVC008
     FM231000 35007KT P6SM SCT020=

USA.gov is the U.S. government's official web portal to all federal, state and local government web resources and services.